createdAt,value
2022-08-02T04:00:27.584Z,71.39
2022-08-02T04:01:27.652Z,71.19
2022-08-02T04:02:27.560Z,71.00
2022-08-02T04:03:27.529Z,71.09
2022-08-02T04:04:27.516Z,71.53
2022-08-02T04:05:27.498Z,71.50
2022-08-02T04:06:28.519Z,71.33
2022-08-02T04:08:34.299Z,71.33
2022-08-02T04:08:35.600Z,71.50
2022-08-02T04:09:28.462Z,71.30
2022-08-02T04:10:27.440Z,71.23
2022-08-02T04:11:32.460Z,71.19
2022-08-02T04:12:27.419Z,71.50
2022-08-02T04:13:31.489Z,71.59
2022-08-02T04:14:27.420Z,71.53
2022-08-02T04:15:27.383Z,71.59
2022-08-02T04:16:27.371Z,72.00
2022-08-02T04:17:27.365Z,71.09
2022-08-02T04:18:27.352Z,71.39
2022-08-02T04:19:27.353Z,71.09
2022-08-02T04:20:27.326Z,71.39
2022-08-02T04:21:27.318Z,71.39
2022-08-02T04:22:33.326Z,71.19
2022-08-02T04:23:27.296Z,71.39
2022-08-02T04:24:27.296Z,71.09
2022-08-02T04:25:35.402Z,71.50
2022-08-02T04:26:28.582Z,71.59
2022-08-02T04:28:15.663Z,71.43
2022-08-02T04:28:29.116Z,71.39
2022-08-02T04:29:27.248Z,71.39
2022-08-02T04:30:27.216Z,71.23
2022-08-02T04:31:27.211Z,71.19
2022-08-02T04:32:27.194Z,71.50
2022-08-02T04:33:32.208Z,71.30
2022-08-02T04:34:27.176Z,71.50
2022-08-02T04:35:27.170Z,71.39
2022-08-02T04:36:30.905Z,72.00
2022-08-02T04:37:27.152Z,71.39
2022-08-02T04:38:27.129Z,71.09
2022-08-02T04:39:27.130Z,71.19
2022-08-02T04:40:27.116Z,71.69
2022-08-02T04:41:27.098Z,71.50
2022-08-02T04:42:27.088Z,71.30
2022-08-02T04:43:27.073Z,70.79
2022-08-02T04:44:32.082Z,71.00
2022-08-02T04:45:27.070Z,71.19
2022-08-02T04:46:27.041Z,70.76
2022-08-02T04:48:03.494Z,70.86
2022-08-02T04:48:28.016Z,70.96
2022-08-02T04:49:27.214Z,70.59
2022-08-02T04:50:27.005Z,70.66
2022-08-02T04:51:38.161Z,70.66
2022-08-02T04:52:28.036Z,70.76
2022-08-02T04:53:26.963Z,70.79
2022-08-02T04:54:26.949Z,70.69
2022-08-02T04:55:31.983Z,70.46
2022-08-02T04:56:26.927Z,70.86
2022-08-02T04:57:26.917Z,70.56
2022-08-02T04:58:42.272Z,70.76
2022-08-02T04:59:27.895Z,70.79
2022-08-02T05:00:27.027Z,70.76
2022-08-02T05:01:26.875Z,70.26
2022-08-02T05:02:26.862Z,70.26
2022-08-02T05:03:26.855Z,70.56
2022-08-02T05:04:26.872Z,70.26
2022-08-02T05:05:26.860Z,70.66
2022-08-02T05:06:31.839Z,70.76
2022-08-02T05:07:26.811Z,70.66
2022-08-02T05:08:26.817Z,71.69
2022-08-02T05:09:26.800Z,71.39
2022-08-02T05:10:26.787Z,71.59
2022-08-02T05:11:34.356Z,71.09
2022-08-02T05:12:27.749Z,71.19
2022-08-02T05:13:26.743Z,71.09
2022-08-02T05:14:26.728Z,71.19
2022-08-02T05:15:30.330Z,71.30
2022-08-02T05:16:31.564Z,71.19
2022-08-02T05:17:31.719Z,71.39
2022-08-02T05:18:26.689Z,71.06
2022-08-02T05:19:26.675Z,71.30
2022-08-02T05:20:26.672Z,71.39
2022-08-02T05:21:26.679Z,71.50
2022-08-02T05:22:26.648Z,71.06
2022-08-02T05:23:26.638Z,70.76
2022-08-02T05:24:26.618Z,70.66
2022-08-02T05:25:26.724Z,70.96
2022-08-02T05:26:26.596Z,70.46
2022-08-02T05:27:26.586Z,70.96
2022-08-02T05:28:31.618Z,70.53
2022-08-02T05:29:26.566Z,70.96
2022-08-02T05:30:26.554Z,70.62
2022-08-02T05:31:26.550Z,70.46
2022-08-02T05:32:26.533Z,70.73
2022-08-02T05:33:26.523Z,70.92
2022-08-02T05:34:26.536Z,70.62
2022-08-02T05:35:26.503Z,70.53
2022-08-02T05:36:26.505Z,70.83
2022-08-02T05:37:26.483Z,69.53
2022-08-02T05:38:27.462Z,69.93
2022-08-02T05:39:31.852Z,69.73
2022-08-02T05:40:26.441Z,69.53
2022-08-02T05:41:26.448Z,69.73
2022-08-02T05:42:26.422Z,69.82
2022-08-02T05:43:26.422Z,69.53
2022-08-02T05:44:26.397Z,70.23
2022-08-02T05:45:26.394Z,70.53
2022-08-02T05:46:26.385Z,70.92
2022-08-02T05:47:26.371Z,70.83
2022-08-02T05:48:31.090Z,70.92
2022-08-02T05:49:27.437Z,70.62
2022-08-02T05:50:31.358Z,71.16
2022-08-02T05:51:26.333Z,70.96
2022-08-02T05:52:26.310Z,70.86
2022-08-02T05:53:26.298Z,70.86
2022-08-02T05:54:26.288Z,70.96
2022-08-02T05:55:26.281Z,71.16
2022-08-02T05:56:26.275Z,69.43
2022-08-02T05:57:26.284Z,69.99
2022-08-02T05:58:26.244Z,69.39
2022-08-02T05:59:26.233Z,69.39
2022-08-02T06:00:26.228Z,69.19
2022-08-02T06:01:31.327Z,68.89
2022-08-02T06:02:30.260Z,68.73
2022-08-02T06:03:26.188Z,68.56
2022-08-02T06:04:26.175Z,67.03
2022-08-02T06:05:26.172Z,67.53
2022-08-02T06:06:26.167Z,67.33
2022-08-02T06:07:26.151Z,67.13
2022-08-02T06:08:26.137Z,67.13
2022-08-02T06:09:27.216Z,67.53
2022-08-02T06:10:26.128Z,67.30
2022-08-02T06:11:26.112Z,66.83
2022-08-02T06:12:31.109Z,67.10
2022-08-02T06:13:26.087Z,66.60
2022-08-02T06:14:30.592Z,67.00
2022-08-02T06:15:26.060Z,67.63
2022-08-02T06:16:32.194Z,67.23
2022-08-02T06:17:27.045Z,67.33
2022-08-02T06:18:28.549Z,67.63
2022-08-02T06:19:26.013Z,67.93
2022-08-02T06:20:26.000Z,67.43
2022-08-02T06:22:32.596Z,67.43
2022-08-02T06:22:35.841Z,67.19
2022-08-02T06:23:31.994Z,66.80
2022-08-02T06:24:25.961Z,66.36
2022-08-02T06:25:50.728Z,65.73
2022-08-02T06:26:26.946Z,66.03
2022-08-02T06:27:25.922Z,65.31
2022-08-02T06:28:25.912Z,65.34
2022-08-02T06:29:25.900Z,65.23
2022-08-02T06:30:25.954Z,65.44
2022-08-02T06:31:25.924Z,65.34
2022-08-02T06:32:25.880Z,66.06
2022-08-02T06:33:25.862Z,66.27
2022-08-02T06:34:30.871Z,66.36
2022-08-02T06:35:25.847Z,65.97
2022-08-02T06:36:25.823Z,66.47
2022-08-02T06:37:25.830Z,66.56
2022-08-02T06:38:25.829Z,65.44
2022-08-02T06:39:25.793Z,64.71
2022-08-02T06:40:25.827Z,64.01
2022-08-02T06:41:25.770Z,63.88
2022-08-02T06:42:27.101Z,64.71
2022-08-02T06:43:25.754Z,64.28
2022-08-02T06:44:57.239Z,64.31
2022-08-02T06:45:31.748Z,64.71
2022-08-02T06:46:54.417Z,64.01
2022-08-02T06:47:26.715Z,65.80
2022-08-02T06:48:25.693Z,65.41
2022-08-02T06:49:25.743Z,64.94
2022-08-02T06:50:26.669Z,65.04
2022-08-02T06:51:25.663Z,65.73
2022-08-02T06:52:28.951Z,65.53
2022-08-02T06:53:25.643Z,65.73
2022-08-02T06:54:25.632Z,65.23
2022-08-02T06:55:25.619Z,65.73
2022-08-02T06:56:30.657Z,65.44
2022-08-02T06:57:25.615Z,65.44
2022-08-02T06:58:25.585Z,65.73
2022-08-02T06:59:25.605Z,64.94
2022-08-02T07:00:25.563Z,64.84
2022-08-02T07:01:25.634Z,65.67
2022-08-02T07:02:25.568Z,66.66
2022-08-02T07:03:25.530Z,66.60
2022-08-02T07:04:25.520Z,67.00
2022-08-02T07:05:25.513Z,66.17
2022-08-02T07:06:25.497Z,65.87
2022-08-02T07:07:30.521Z,65.23
2022-08-02T07:08:25.477Z,65.23
2022-08-02T07:09:25.472Z,64.01
2022-08-02T07:10:25.487Z,64.71
2022-08-02T07:11:25.452Z,64.61
2022-08-02T07:12:25.442Z,63.91
2022-08-02T07:13:25.423Z,63.61
2022-08-02T07:14:25.411Z,63.68
2022-08-02T07:15:25.401Z,63.61
2022-08-02T07:16:25.385Z,63.28
2022-08-02T07:17:25.387Z,62.78
2022-08-02T07:18:30.387Z,62.68
2022-08-02T07:19:38.021Z,62.55
2022-08-02T07:20:26.340Z,62.45
2022-08-02T07:21:56.609Z,62.15
2022-08-02T07:22:26.343Z,61.96
2022-08-02T07:23:25.309Z,62.02
2022-08-02T07:24:25.301Z,62.13
2022-08-02T07:25:25.287Z,62.23
2022-08-02T07:26:26.274Z,62.13
2022-08-02T07:27:25.275Z,61.76
2022-08-02T07:28:25.254Z,61.85
2022-08-02T07:29:32.721Z,62.35
2022-08-02T07:30:26.307Z,62.55
2022-08-02T07:31:25.224Z,62.55
2022-08-02T07:32:25.221Z,62.55
2022-08-02T07:33:37.819Z,62.35
2022-08-02T07:34:26.183Z,61.93
2022-08-02T07:35:25.175Z,61.72
2022-08-02T07:36:25.166Z,61.83
2022-08-02T07:37:35.016Z,61.23
2022-08-02T07:38:26.138Z,61.63
2022-08-02T07:39:25.135Z,61.53
2022-08-02T07:40:30.157Z,60.53
2022-08-02T07:41:25.108Z,60.93
2022-08-02T07:42:25.095Z,60.43
2022-08-02T07:43:25.095Z,59.83
2022-08-02T07:44:25.074Z,59.44
2022-08-02T07:45:25.063Z,59.11
2022-08-02T07:46:25.053Z,59.81
2022-08-02T07:47:25.045Z,58.54
2022-08-02T07:48:25.041Z,59.11
2022-08-02T07:49:25.018Z,58.71
2022-08-02T07:50:25.008Z,59.11
2022-08-02T07:51:30.036Z,58.51
2022-08-02T07:52:25.026Z,58.39
2022-08-02T07:53:50.041Z,58.41
2022-08-02T07:54:25.959Z,58.39
2022-08-02T07:55:24.970Z,57.59
2022-08-02T07:56:25.937Z,56.70
2022-08-02T07:57:24.929Z,56.59
2022-08-02T07:58:24.928Z,56.89
2022-08-02T07:59:24.909Z,56.82
2022-08-02T08:00:24.895Z,57.09
2022-08-02T08:01:24.902Z,55.40
2022-08-02T08:02:29.890Z,56.47
2022-08-02T08:03:24.870Z,54.88
2022-08-02T08:04:24.859Z,55.18
2022-08-02T08:05:24.886Z,54.88
2022-08-02T08:06:28.621Z,55.38
2022-08-02T08:07:24.815Z,54.28
2022-08-02T08:08:24.815Z,54.48
2022-08-02T08:09:24.793Z,53.78
2022-08-02T08:10:24.816Z,53.78
2022-08-02T08:11:24.773Z,54.48
2022-08-02T08:12:24.767Z,53.86
2022-08-02T08:13:29.779Z,52.37
2022-08-02T08:14:24.736Z,52.76
2022-08-02T08:15:24.729Z,52.37
2022-08-02T08:16:24.724Z,52.26
2022-08-02T08:17:24.729Z,52.47
2022-08-02T08:18:24.704Z,52.14
2022-08-02T08:19:51.731Z,50.75
2022-08-02T08:20:25.703Z,52.14
2022-08-02T08:21:24.658Z,51.25
2022-08-02T08:22:24.656Z,51.84
2022-08-02T08:23:24.666Z,51.84
2022-08-02T08:24:29.651Z,52.24
2022-08-02T08:25:24.618Z,52.24
2022-08-02T08:26:24.607Z,51.32
2022-08-02T08:27:24.630Z,51.62
2022-08-02T08:28:24.602Z,51.92
2022-08-02T08:29:24.576Z,51.23
2022-08-02T08:30:24.564Z,50.95
2022-08-02T08:31:24.551Z,49.96
2022-08-02T08:32:25.093Z,49.36
2022-08-02T08:33:24.539Z,49.16
2022-08-02T08:34:24.542Z,48.35
2022-08-02T08:35:29.527Z,48.74
2022-08-02T08:36:24.502Z,49.34
2022-08-02T08:37:24.487Z,49.54
2022-08-02T08:38:24.488Z,48.44
2022-08-02T08:39:24.461Z,48.65
2022-08-02T08:40:24.452Z,49.63
2022-08-02T08:41:24.440Z,49.63
2022-08-02T08:42:24.431Z,48.84
2022-08-02T08:43:24.431Z,48.54
2022-08-02T08:44:24.410Z,48.02
2022-08-02T08:45:24.397Z,48.13
2022-08-02T08:46:29.409Z,47.13
2022-08-02T08:47:24.375Z,48.00
2022-08-02T08:48:30.416Z,46.61
2022-08-02T08:49:25.395Z,46.51
2022-08-02T08:50:25.408Z,45.52
2022-08-02T08:51:24.335Z,45.82
2022-08-02T08:52:24.355Z,44.93
2022-08-02T08:53:24.318Z,44.53
2022-08-02T08:54:25.304Z,44.53
2022-08-02T08:55:24.316Z,44.23
2022-08-02T08:56:24.294Z,43.42
2022-08-02T08:57:29.327Z,43.91
2022-08-02T08:58:24.273Z,43.44
2022-08-02T08:59:24.245Z,44.13
2022-08-02T09:00:24.233Z,44.31
2022-08-02T09:01:24.319Z,43.62
2022-08-02T09:02:28.126Z,44.11
2022-08-02T09:03:24.246Z,44.09
2022-08-02T09:04:24.189Z,42.90
2022-08-02T09:05:24.176Z,42.80
2022-08-02T09:06:24.195Z,42.41
2022-08-02T09:07:24.160Z,42.19
2022-08-02T09:08:29.181Z,43.28
2022-08-02T09:09:24.133Z,42.29
2022-08-02T09:10:24.123Z,41.79
2022-08-02T09:11:24.207Z,41.89
2022-08-02T09:12:24.102Z,41.89
2022-08-02T09:13:37.690Z,41.69
2022-08-02T09:14:25.080Z,41.10
2022-08-02T09:15:24.067Z,41.61
2022-08-02T09:16:24.062Z,41.02
2022-08-02T09:17:24.049Z,41.81
2022-08-02T09:18:24.060Z,41.12
2022-08-02T09:19:29.047Z,41.41
2022-08-02T09:20:27.970Z,41.52
2022-08-02T09:21:25.002Z,41.71
2022-08-02T09:22:24.014Z,41.89
2022-08-02T09:23:23.996Z,41.30
2022-08-02T09:24:23.975Z,41.99
2022-08-02T09:25:23.968Z,42.09
2022-08-02T09:26:23.955Z,42.38
2022-08-02T09:27:23.967Z,42.36
2022-08-02T09:28:23.931Z,42.46
2022-08-02T09:29:23.938Z,41.69
2022-08-02T09:30:28.932Z,42.27
2022-08-02T09:31:23.912Z,42.36
2022-08-02T09:32:23.888Z,42.27
2022-08-02T09:33:23.875Z,41.38
2022-08-02T09:34:23.874Z,40.86
2022-08-02T09:35:23.862Z,41.36
2022-08-02T09:36:23.867Z,41.44
2022-08-02T09:37:23.832Z,40.55
2022-08-02T09:38:26.067Z,40.42
2022-08-02T09:39:23.861Z,40.03
2022-08-02T09:40:23.804Z,40.53
2022-08-02T09:41:28.812Z,40.45
2022-08-02T09:42:23.780Z,40.55
2022-08-02T09:43:24.817Z,40.42
2022-08-02T09:44:23.773Z,41.02
2022-08-02T09:45:23.749Z,40.92
2022-08-02T09:46:24.709Z,40.92
2022-08-02T09:47:23.724Z,40.92
2022-08-02T09:48:23.722Z,41.31
2022-08-02T09:49:23.765Z,41.04
2022-08-02T09:50:23.691Z,41.02
2022-08-02T09:51:23.679Z,41.22
2022-08-02T09:52:43.337Z,40.42
2022-08-02T09:53:24.655Z,39.93
2022-08-02T09:54:23.698Z,40.03
2022-08-02T09:55:23.636Z,40.23
2022-08-02T09:56:34.288Z,41.79
2022-08-02T09:57:24.612Z,40.42
2022-08-02T09:58:23.607Z,40.53
2022-08-02T09:59:23.613Z,40.61
2022-08-02T10:00:43.373Z,40.50
2022-08-02T10:01:37.043Z,40.92
2022-08-02T10:02:24.604Z,40.53
2022-08-02T10:03:34.946Z,41.12
2022-08-02T10:04:24.953Z,41.41
2022-08-02T10:05:23.536Z,40.72
2022-08-02T10:06:23.517Z,41.61
2022-08-02T10:07:23.506Z,41.61
2022-08-02T10:08:23.496Z,41.12
2022-08-02T10:09:23.498Z,41.79
2022-08-02T10:10:23.481Z,41.59
2022-08-02T10:11:23.470Z,40.90
2022-08-02T10:12:23.472Z,40.88
2022-08-02T10:13:23.440Z,40.48
2022-08-02T10:14:28.469Z,40.58
2022-08-02T10:15:27.274Z,41.20
2022-08-02T10:16:23.413Z,41.30
2022-08-02T10:17:23.399Z,41.30
2022-08-02T10:18:38.245Z,40.98
2022-08-02T10:20:00.943Z,40.88
2022-08-02T10:20:24.372Z,40.78
2022-08-02T10:21:23.355Z,40.48
2022-08-02T10:22:23.348Z,40.27
2022-08-02T10:23:23.332Z,40.48
2022-08-02T10:24:23.365Z,41.47
2022-08-02T10:25:28.335Z,40.31
2022-08-02T10:26:23.301Z,41.30
2022-08-02T10:27:23.288Z,40.90
2022-08-02T10:28:23.280Z,40.90
2022-08-02T10:29:23.275Z,41.97
2022-08-02T10:30:23.259Z,41.87
2022-08-02T10:31:23.246Z,40.86
2022-08-02T10:32:23.236Z,40.69
2022-08-02T10:33:23.224Z,40.76
2022-08-02T10:34:23.223Z,41.06
2022-08-02T10:35:25.830Z,41.25
2022-08-02T10:36:28.216Z,41.06
2022-08-02T10:37:23.179Z,40.86
2022-08-02T10:38:23.175Z,40.64
2022-08-02T10:39:23.170Z,40.35
2022-08-02T10:40:23.151Z,41.14
2022-08-02T10:41:23.135Z,40.94
2022-08-02T10:42:23.131Z,40.23
2022-08-02T10:43:23.115Z,40.13
2022-08-02T10:44:24.384Z,40.47
2022-08-02T10:45:23.131Z,40.27
2022-08-02T10:46:23.092Z,40.37
2022-08-02T10:47:28.096Z,40.76
2022-08-02T10:48:23.093Z,39.89
2022-08-02T10:49:40.274Z,41.08
2022-08-02T10:50:24.046Z,40.61
2022-08-02T10:51:24.502Z,41.10
2022-08-02T10:52:23.019Z,41.00
2022-08-02T10:53:23.006Z,40.90
2022-08-02T10:54:23.013Z,40.78
2022-08-02T10:55:23.034Z,40.48
2022-08-02T10:56:22.978Z,40.98
2022-08-02T10:57:22.969Z,40.37
2022-08-02T10:58:29.633Z,40.27
2022-08-02T10:59:22.993Z,39.86
2022-08-02T11:00:22.945Z,39.36
2022-08-02T11:01:23.051Z,39.95
2022-08-02T11:02:22.916Z,38.87
2022-08-02T11:03:22.900Z,39.44
2022-08-02T11:04:22.890Z,38.95
2022-08-02T11:05:22.892Z,38.85
2022-08-02T11:06:25.658Z,38.93
2022-08-02T11:07:22.856Z,39.23
2022-08-02T11:08:22.853Z,39.23
2022-08-02T11:09:31.848Z,38.64
2022-08-02T11:10:22.823Z,37.93
2022-08-02T11:11:54.392Z,37.81
2022-08-02T11:12:23.808Z,38.01
2022-08-02T11:13:22.819Z,37.89
2022-08-02T11:14:22.793Z,36.88
2022-08-02T11:15:22.778Z,36.99
2022-08-02T11:16:22.763Z,36.88
2022-08-02T11:17:22.751Z,36.87
2022-08-02T11:18:22.746Z,36.57
2022-08-02T11:19:22.727Z,36.57
2022-08-02T11:20:27.763Z,36.20
2022-08-02T11:21:22.731Z,36.38
2022-08-02T11:22:25.822Z,37.07
2022-08-02T11:23:22.683Z,36.38
2022-08-02T11:24:23.676Z,36.36
2022-08-02T11:25:22.685Z,36.46
2022-08-02T11:26:22.663Z,36.18
2022-08-02T11:27:22.641Z,36.97
2022-08-02T11:28:25.075Z,36.65
2022-08-02T11:29:22.620Z,35.66
2022-08-02T11:30:26.642Z,34.93
2022-08-02T11:31:22.601Z,34.90
2022-08-02T11:32:22.593Z,33.69
2022-08-02T11:33:28.603Z,33.87
2022-08-02T11:34:37.779Z,32.95
2022-08-02T11:35:23.590Z,32.14
2022-08-02T11:36:22.820Z,32.14
2022-08-02T11:37:22.535Z,31.96
2022-08-02T11:38:22.526Z,32.68
2022-08-02T11:39:22.515Z,33.07
2022-08-02T11:40:22.515Z,33.61
2022-08-02T11:41:47.450Z,33.64
2022-08-02T11:42:23.493Z,34.83
2022-08-02T11:43:22.478Z,34.83
2022-08-02T11:44:22.466Z,35.52
2022-08-02T11:45:25.189Z,35.44
2022-08-02T11:46:28.473Z,35.74
2022-08-02T11:47:22.436Z,35.46
2022-08-02T11:48:22.438Z,35.46
2022-08-02T11:49:22.536Z,34.99
2022-08-02T11:50:30.371Z,36.07
2022-08-02T11:51:23.391Z,35.87
2022-08-02T11:52:22.385Z,35.47
2022-08-02T11:53:22.380Z,35.38
2022-08-02T11:54:22.361Z,35.67
2022-08-02T11:55:22.361Z,36.36
2022-08-02T11:56:24.837Z,36.36
2022-08-02T11:57:27.350Z,36.34
2022-08-02T11:58:22.341Z,35.44
2022-08-02T11:59:22.335Z,35.54
2022-08-02T12:00:22.306Z,35.14
2022-08-02T12:01:22.333Z,35.82
2022-08-02T12:02:22.292Z,35.42
2022-08-02T12:03:22.311Z,34.62
2022-08-02T12:04:22.544Z,34.20
2022-08-02T12:05:24.672Z,33.87
2022-08-02T12:06:23.234Z,32.76
2022-08-02T12:07:30.332Z,32.78
2022-08-02T12:08:25.171Z,33.97
2022-08-02T12:09:22.202Z,33.89
2022-08-02T12:10:27.230Z,33.75
2022-08-02T12:11:22.191Z,33.15
2022-08-02T12:12:22.193Z,31.46
2022-08-02T12:13:22.161Z,32.23
2022-08-02T12:14:22.152Z,32.23
2022-08-02T12:15:22.167Z,30.96
2022-08-02T12:16:22.135Z,32.01
2022-08-02T12:17:22.120Z,31.70
2022-08-02T12:18:22.116Z,31.12
2022-08-02T12:19:22.100Z,30.70
2022-08-02T12:20:22.102Z,30.21
2022-08-02T12:21:27.104Z,30.68
2022-08-02T12:22:24.428Z,29.83
2022-08-02T12:23:23.103Z,31.45
2022-08-02T12:24:22.057Z,32.03
2022-08-02T12:25:33.568Z,30.65
2022-08-02T12:26:23.034Z,30.22
2022-08-02T12:27:22.028Z,29.91
2022-08-02T12:28:22.012Z,29.71
2022-08-02T12:29:55.878Z,29.81
2022-08-02T12:30:27.915Z,29.61
2022-08-02T12:31:22.986Z,30.11
2022-08-02T12:32:26.997Z,30.13
2022-08-02T12:33:21.963Z,29.82
2022-08-02T12:34:21.952Z,29.50
2022-08-02T12:35:26.769Z,28.89
2022-08-02T12:36:21.934Z,28.49
2022-08-02T12:37:21.925Z,28.57
2022-08-02T12:38:21.911Z,27.69
2022-08-02T12:39:21.903Z,27.42
2022-08-02T12:40:25.159Z,27.53
2022-08-02T12:41:30.397Z,28.69
2022-08-02T12:42:22.875Z,28.39
2022-08-02T12:43:26.885Z,27.92
2022-08-02T12:44:21.851Z,28.11
2022-08-02T12:45:21.900Z,28.04
2022-08-02T12:46:21.845Z,28.28
2022-08-02T12:47:21.901Z,29.85
2022-08-02T12:48:21.811Z,29.18
2022-08-02T12:49:21.893Z,29.80
2022-08-02T12:50:21.792Z,29.71
2022-08-02T12:51:21.795Z,31.31
2022-08-02T12:52:21.770Z,31.51
2022-08-02T12:53:21.764Z,31.06
2022-08-02T12:54:30.662Z,32.25
2022-08-02T12:55:22.743Z,33.04
2022-08-02T12:56:21.739Z,32.25
2022-08-02T12:57:21.770Z,33.14
2022-08-02T12:58:21.733Z,32.84
2022-08-02T12:59:21.698Z,32.66
2022-08-02T13:00:21.692Z,33.05
2022-08-02T13:01:21.771Z,33.43
2022-08-02T13:02:21.984Z,32.56
2022-08-02T13:04:11.062Z,32.69
2022-08-02T13:04:22.648Z,34.28
2022-08-02T13:05:26.656Z,34.00
2022-08-02T13:06:50.345Z,34.69
2022-08-02T13:07:22.636Z,35.87
2022-08-02T13:08:21.604Z,34.49
2022-08-02T13:09:24.760Z,34.00
2022-08-02T13:10:22.582Z,34.39
2022-08-02T13:11:21.582Z,34.39
2022-08-02T13:12:21.567Z,34.30
2022-08-02T13:13:21.551Z,34.39
2022-08-02T13:14:21.541Z,34.59
2022-08-02T13:15:49.265Z,34.39
2022-08-02T13:16:30.570Z,34.69
2022-08-02T13:17:22.513Z,34.01
2022-08-02T13:18:26.529Z,34.80
2022-08-02T13:19:21.518Z,35.30
2022-08-02T13:20:21.500Z,34.70
2022-08-02T13:21:40.208Z,34.70
2022-08-02T13:22:22.458Z,34.61
2022-08-02T13:23:22.159Z,35.10
2022-08-02T13:24:38.814Z,34.51
2022-08-02T13:25:22.424Z,34.70
2022-08-02T13:26:21.426Z,34.78
2022-08-02T13:27:21.511Z,34.11
2022-08-02T13:28:21.392Z,34.41
2022-08-02T13:29:21.381Z,35.02
2022-08-02T13:30:21.373Z,35.02
2022-08-02T13:31:36.035Z,34.64
2022-08-02T13:32:22.373Z,34.64
2022-08-02T13:33:21.375Z,35.41
2022-08-02T13:34:21.329Z,34.63
2022-08-02T13:35:21.330Z,34.53
2022-08-02T13:36:21.321Z,34.53
2022-08-02T13:37:21.295Z,34.54
2022-08-02T13:38:24.913Z,35.11
2022-08-02T13:39:21.274Z,34.92
2022-08-02T13:40:22.545Z,34.82
2022-08-02T13:41:21.263Z,35.41
2022-08-02T13:42:21.244Z,35.31
2022-08-02T13:43:21.233Z,35.90
2022-08-02T13:44:26.243Z,34.72
2022-08-02T13:45:21.241Z,34.43
2022-08-02T13:46:29.379Z,34.03
2022-08-02T13:47:35.805Z,34.01
2022-08-02T13:48:22.175Z,32.65
2022-08-02T13:49:21.676Z,33.74
2022-08-02T13:50:22.246Z,33.75
2022-08-02T13:51:21.156Z,34.13
2022-08-02T13:52:21.134Z,34.23
2022-08-02T13:53:21.127Z,34.23
2022-08-02T13:54:21.112Z,33.54
2022-08-02T13:55:21.104Z,33.84
2022-08-02T13:56:35.905Z,33.25
2022-08-02T13:57:27.107Z,33.54
2022-08-02T13:58:21.092Z,34.53
2022-08-02T13:59:21.920Z,34.72
2022-08-02T14:00:35.089Z,34.63
2022-08-02T14:01:22.129Z,33.62
2022-08-02T14:02:21.032Z,32.34
2022-08-02T14:03:21.018Z,32.64
2022-08-02T14:04:21.020Z,33.34
2022-08-02T14:05:25.143Z,33.92
2022-08-02T14:06:21.995Z,33.72
2022-08-02T14:07:20.976Z,33.72
2022-08-02T14:08:20.984Z,33.03
2022-08-02T14:09:20.960Z,32.62
2022-08-02T14:10:25.964Z,32.82
2022-08-02T14:11:20.972Z,33.02
2022-08-02T14:12:20.949Z,34.11
2022-08-02T14:13:20.915Z,32.64
2022-08-02T14:14:20.897Z,33.92
2022-08-02T14:15:20.892Z,34.11
2022-08-02T14:16:20.897Z,33.84
2022-08-02T14:17:20.876Z,33.95
2022-08-02T14:18:20.861Z,34.15
2022-08-02T14:19:20.919Z,34.15
2022-08-02T14:20:23.133Z,34.05
2022-08-02T14:21:21.834Z,34.15
2022-08-02T14:22:20.816Z,34.34
2022-08-02T14:23:49.626Z,34.44
2022-08-02T14:24:21.811Z,33.54
2022-08-02T14:25:20.805Z,34.72
2022-08-02T14:26:27.572Z,33.34
2022-08-02T14:27:21.793Z,34.03
2022-08-02T14:28:20.775Z,32.76
2022-08-02T14:29:20.742Z,32.76
2022-08-02T14:30:20.724Z,33.13
2022-08-02T14:31:20.729Z,33.15
2022-08-02T14:32:20.706Z,33.25
2022-08-02T14:33:21.694Z,33.05
2022-08-02T14:34:20.703Z,32.95
2022-08-02T14:35:20.677Z,33.64
2022-08-02T14:36:27.207Z,33.82
2022-08-02T14:37:20.674Z,32.84
2022-08-02T14:38:20.663Z,33.72
2022-08-02T14:39:20.631Z,33.03
2022-08-02T14:40:30.885Z,32.14
2022-08-02T14:41:21.810Z,32.72
2022-08-02T14:42:20.597Z,32.14
2022-08-02T14:43:20.586Z,32.33
2022-08-02T14:44:20.650Z,32.23
2022-08-02T14:45:20.564Z,32.23
2022-08-02T14:46:20.611Z,31.54
2022-08-02T14:47:20.574Z,32.23
2022-08-02T14:48:20.532Z,31.25
2022-08-02T14:49:26.920Z,32.23
2022-08-02T14:50:20.557Z,31.26
2022-08-02T14:51:20.537Z,32.64
2022-08-02T14:52:20.490Z,32.04
2022-08-02T14:53:20.496Z,31.66
2022-08-02T14:54:20.467Z,31.16
2022-08-02T14:55:21.457Z,32.45
2022-08-02T14:56:20.450Z,31.56
2022-08-02T14:57:20.457Z,31.07
2022-08-02T14:58:20.423Z,31.85
2022-08-02T14:59:20.438Z,32.24
2022-08-02T15:00:20.406Z,31.76
2022-08-02T15:01:20.441Z,32.64
2022-08-02T15:02:26.411Z,32.34
2022-08-02T15:03:20.403Z,32.45
2022-08-02T15:04:20.388Z,31.26
2022-08-02T15:05:20.359Z,32.05
2022-08-02T15:06:20.339Z,31.97
2022-08-02T15:07:20.342Z,31.95
2022-08-02T15:08:20.320Z,32.15
2022-08-02T15:09:20.323Z,32.36
2022-08-02T15:10:20.331Z,32.07
2022-08-02T15:11:20.306Z,32.07
2022-08-02T15:12:20.283Z,32.36
2022-08-02T15:13:20.272Z,32.56
2022-08-02T15:14:25.641Z,33.34
2022-08-02T15:15:26.263Z,32.36
2022-08-02T15:16:20.253Z,31.87
2022-08-02T15:17:20.260Z,32.56
2022-08-02T15:18:20.211Z,32.93
2022-08-02T15:19:20.200Z,32.15
2022-08-02T15:20:25.285Z,33.23
2022-08-02T15:21:40.721Z,33.43
2022-08-02T15:22:21.179Z,32.74
2022-08-02T15:23:20.201Z,32.34
2022-08-02T15:24:20.145Z,32.64
2022-08-02T15:25:20.135Z,32.74
2022-08-02T15:26:20.126Z,32.74
2022-08-02T15:27:20.147Z,32.93
2022-08-02T15:28:25.150Z,33.13
2022-08-02T15:29:20.114Z,32.74
2022-08-02T15:30:20.106Z,34.11
2022-08-02T15:31:22.276Z,33.43
2022-08-02T15:32:21.078Z,33.92
2022-08-02T15:33:20.051Z,33.92
2022-08-02T15:34:20.038Z,32.54
2022-08-02T15:35:20.028Z,33.23
2022-08-02T15:36:20.018Z,32.93
2022-08-02T15:37:20.018Z,33.23
2022-08-02T15:38:19.995Z,32.64
2022-08-02T15:39:19.987Z,32.34
2022-08-02T15:40:19.975Z,32.34
2022-08-02T15:41:24.990Z,32.17
2022-08-02T15:42:19.984Z,32.36
2022-08-02T15:43:20.967Z,32.45
2022-08-02T15:44:19.932Z,32.95
2022-08-02T15:45:19.929Z,34.13
2022-08-02T15:46:19.908Z,33.92
2022-08-02T15:47:19.914Z,32.93
2022-08-02T15:48:19.887Z,34.01
2022-08-02T15:49:19.910Z,33.43
2022-08-02T15:50:19.868Z,33.82
2022-08-02T15:51:19.861Z,33.82
2022-08-02T15:52:19.860Z,33.23
2022-08-02T15:53:19.835Z,32.74
2022-08-02T15:54:24.848Z,32.64
2022-08-02T15:55:19.814Z,32.93
2022-08-02T15:56:23.819Z,32.93
2022-08-02T15:57:19.805Z,33.53
2022-08-02T15:58:22.480Z,33.72
2022-08-02T15:59:19.774Z,32.93
2022-08-02T16:00:19.758Z,33.82
2022-08-02T16:01:19.823Z,33.82
2022-08-02T16:02:19.782Z,32.93
2022-08-02T16:03:19.734Z,32.74
2022-08-02T16:04:19.716Z,33.53
2022-08-02T16:05:24.746Z,32.64
2022-08-02T16:06:19.694Z,33.23
2022-08-02T16:07:19.696Z,32.34
2022-08-02T16:08:19.681Z,32.74
2022-08-02T16:09:19.665Z,33.13
2022-08-02T16:10:19.654Z,31.95
2022-08-02T16:11:19.644Z,32.74
2022-08-02T16:12:19.652Z,32.93
2022-08-02T16:13:20.623Z,33.33
2022-08-02T16:14:19.608Z,32.93
2022-08-02T16:15:19.600Z,32.64
2022-08-02T16:16:24.620Z,33.13
2022-08-02T16:17:51.700Z,32.34
2022-08-02T16:18:20.570Z,32.05
2022-08-02T16:19:46.729Z,31.76
2022-08-02T16:20:20.560Z,32.34
2022-08-02T16:21:19.547Z,31.56
2022-08-02T16:22:19.553Z,32.26
2022-08-02T16:23:19.516Z,32.34
2022-08-02T16:24:20.526Z,32.15
2022-08-02T16:25:19.500Z,32.36
2022-08-02T16:26:19.486Z,32.36
2022-08-02T16:27:24.640Z,32.36
2022-08-02T16:28:19.468Z,31.87
2022-08-02T16:29:19.673Z,32.95
2022-08-02T16:30:19.436Z,31.87
2022-08-02T16:31:19.448Z,32.26
2022-08-02T16:32:19.423Z,31.97
2022-08-02T16:33:19.412Z,32.56
2022-08-02T16:34:19.393Z,32.56
2022-08-02T16:35:19.387Z,33.15
2022-08-02T16:36:19.738Z,32.95
2022-08-02T16:37:19.387Z,32.07
2022-08-02T16:38:24.374Z,32.86
2022-08-02T16:39:19.340Z,33.05
2022-08-02T16:40:19.329Z,32.65
2022-08-02T16:41:19.327Z,34.03
2022-08-02T16:42:25.301Z,33.07
2022-08-02T16:43:20.326Z,32.76
2022-08-02T16:44:28.980Z,33.54
2022-08-02T16:45:20.928Z,32.38
2022-08-02T16:46:19.273Z,32.87
2022-08-02T16:47:19.257Z,32.18
2022-08-02T16:48:20.252Z,32.08
2022-08-02T16:50:05.874Z,32.28
2022-08-02T16:50:27.391Z,32.38
2022-08-02T16:51:20.214Z,32.38
2022-08-02T16:52:19.590Z,32.97